sensor_id;sensor_type;location;lat;lon;timestamp;temperature;humidity
19206;DHT22;59358;52.134;5.596;2024-03-23T00:55:32;7.70;99.90
19206;DHT22;59358;52.134;5.596;2024-03-23T00:57:58;7.60;99.90
19206;DHT22;59358;52.134;5.596;2024-03-23T01:00:24;7.60;99.90
19206;DHT22;59358;52.134;5.596;2024-03-23T01:02:51;7.60;99.90
19206;DHT22;59358;52.134;5.596;2024-03-23T01:05:17;7.60;99.90
19206;DHT22;59358;52.134;5.596;2024-03-23T01:07:43;7.60;99.90
19206;DHT22;59358;52.134;5.596;2024-03-23T01:10:09;7.60;99.90
19206;DHT22;59358;52.134;5.596;2024-03-23T01:12:38;7.60;99.90
19206;DHT22;59358;52.134;5.596;2024-03-23T01:15:04;7.60;99.90
19206;DHT22;59358;52.134;5.596;2024-03-23T01:17:31;7.60;99.90
19206;DHT22;59358;52.134;5.596;2024-03-23T01:19:57;7.60;99.90
19206;DHT22;59358;52.134;5.596;2024-03-23T01:22:24;7.60;99.90
19206;DHT22;59358;52.134;5.596;2024-03-23T01:24:50;7.60;99.90
19206;DHT22;59358;52.134;5.596;2024-03-23T01:27:17;7.60;99.90
19206;DHT22;59358;52.134;5.596;2024-03-23T01:29:45;7.60;99.90
19206;DHT22;59358;52.134;5.596;2024-03-23T01:32:11;7.70;99.90
19206;DHT22;59358;52.134;5.596;2024-03-23T01:34:37;7.60;99.90
19206;DHT22;59358;52.134;5.596;2024-03-23T01:37:04;7.70;99.90
19206;DHT22;59358;52.134;5.596;2024-03-23T01:39:30;7.70;99.90
19206;DHT22;59358;52.134;5.596;2024-03-23T01:41:56;7.60;99.90
19206;DHT22;59358;52.134;5.596;2024-03-23T01:44:22;7.70;99.90
19206;DHT22;59358;52.134;5.596;2024-03-23T01:46:51;7.70;99.90
19206;DHT22;59358;52.134;5.596;2024-03-23T01:49:17;7.70;99.90
19206;DHT22;59358;52.134;5.596;2024-03-23T01:51:44;7.60;99.90
19206;DHT22;59358;52.134;5.596;2024-03-23T01:54:10;7.60;99.90
19206;DHT22;59358;52.134;5.596;2024-03-23T01:56:37;7.50;99.90
19206;DHT22;59358;52.134;5.596;2024-03-23T01:59:04;7.40;99.90
19206;DHT22;59358;52.134;5.596;2024-03-23T02:01:31;7.30;99.90
19206;DHT22;59358;52.134;5.596;2024-03-23T02:03:59;7.30;99.90
19206;DHT22;59358;52.134;5.596;2024-03-23T02:06:25;7.20;99.90
19206;DHT22;59358;52.134;5.596;2024-03-23T02:08:51;7.10;99.90
19206;DHT22;59358;52.134;5.596;2024-03-23T02:11:18;7.10;99.90
19206;DHT22;59358;52.134;5.596;2024-03-23T02:13:44;7.00;99.90
19206;DHT22;59358;52.134;5.596;2024-03-23T02:16:11;7.00;99.90
19206;DHT22;59358;52.134;5.596;2024-03-23T02:18:37;7.00;99.90
19206;DHT22;59358;52.134;5.596;2024-03-23T02:21:05;6.90;99.90
19206;DHT22;59358;52.134;5.596;2024-03-23T02:23:32;6.90;99.90
19206;DHT22;59358;52.134;5.596;2024-03-23T02:25:59;6.80;99.90
19206;DHT22;59358;52.134;5.596;2024-03-23T02:28:25;6.80;99.90
19206;DHT22;59358;52.134;5.596;2024-03-23T02:30:52;6.80;99.90
19206;DHT22;59358;52.134;5.596;2024-03-23T02:33:17;6.80;99.90
19206;DHT22;59358;52.134;5.596;2024-03-23T02:35:45;6.70;99.90
19206;DHT22;59358;52.134;5.596;2024-03-23T02:38:10;6.70;99.90
19206;DHT22;59358;52.134;5.596;2024-03-23T02:40:39;6.70;99.90
19206;DHT22;59358;52.134;5.596;2024-03-23T02:43:04;6.60;99.90
19206;DHT22;59358;52.134;5.596;2024-03-23T02:45:31;6.60;99.90
19206;DHT22;59358;52.134;5.596;2024-03-23T02:47:57;6.50;99.90
19206;DHT22;59358;52.134;5.596;2024-03-23T02:50:24;6.50;99.90
19206;DHT22;59358;52.134;5.596;2024-03-23T02:52:50;6.50;99.90
19206;DHT22;59358;52.134;5.596;2024-03-23T02:55:16;6.40;99.90
19206;DHT22;59358;52.134;5.596;2024-03-23T02:57:44;6.40;99.90
19206;DHT22;59358;52.134;5.596;2024-03-23T03:00:12;6.40;99.90
19206;DHT22;59358;52.134;5.596;2024-03-23T03:02:38;6.40;99.90
19206;DHT22;59358;52.134;5.596;2024-03-23T03:05:06;6.40;99.90
19206;DHT22;59358;52.134;5.596;2024-03-23T03:07:31;6.40;99.90
19206;DHT22;59358;52.134;5.596;2024-03-23T03:09:58;6.40;99.90
19206;DHT22;59358;52.134;5.596;2024-03-23T03:12:24;6.30;99.90
19206;DHT22;59358;52.134;5.596;2024-03-23T03:14:52;6.30;99.90
19206;DHT22;59358;52.134;5.596;2024-03-23T03:17:18;6.30;99.90
19206;DHT22;59358;52.134;5.596;2024-03-23T03:19:45;6.30;99.90
19206;DHT22;59358;52.134;5.596;2024-03-23T03:22:11;6.20;99.90
19206;DHT22;59358;52.134;5.596;2024-03-23T03:24:38;6.20;99.90
19206;DHT22;59358;52.134;5.596;2024-03-23T03:27:04;6.20;99.90
19206;DHT22;59358;52.134;5.596;2024-03-23T03:29:32;6.20;99.90
19206;DHT22;59358;52.134;5.596;2024-03-23T03:32:02;6.10;99.90
19206;DHT22;59358;52.134;5.596;2024-03-23T03:34:29;6.10;99.90
19206;DHT22;59358;52.134;5.596;2024-03-23T03:36:55;6.00;99.90
19206;DHT22;59358;52.134;5.596;2024-03-23T03:39:22;6.00;99.90
19206;DHT22;59358;52.134;5.596;2024-03-23T03:41:48;5.90;99.90
19206;DHT22;59358;52.134;5.596;2024-03-23T03:44:15;5.90;99.90
19206;DHT22;59358;52.134;5.596;2024-03-23T03:46:40;5.90;99.90
19206;DHT22;59358;52.134;5.596;2024-03-23T03:49:09;5.90;99.90
19206;DHT22;59358;52.134;5.596;2024-03-23T03:51:35;5.80;99.90
19206;DHT22;59358;52.134;5.596;2024-03-23T03:54:01;5.80;99.90
19206;DHT22;59358;52.134;5.596;2024-03-23T03:56:27;5.80;99.90
19206;DHT22;59358;52.134;5.596;2024-03-23T03:58:55;5.70;99.90
19206;DHT22;59358;52.134;5.596;2024-03-23T04:01:21;5.80;99.90
19206;DHT22;59358;52.134;5.596;2024-03-23T04:03:48;5.70;99.90
19206;DHT22;59358;52.134;5.596;2024-03-23T04:06:20;5.70;99.90
19206;DHT22;59358;52.134;5.596;2024-03-23T04:08:47;5.70;99.90
19206;DHT22;59358;52.134;5.596;2024-03-23T04:11:13;5.70;99.90
19206;DHT22;59358;52.134;5.596;2024-03-23T04:13:39;5.60;99.90
19206;DHT22;59358;52.134;5.596;2024-03-23T04:16:07;5.50;99.90
19206;DHT22;59358;52.134;5.596;2024-03-23T04:18:34;5.60;99.90
19206;DHT22;59358;52.134;5.596;2024-03-23T04:21:00;5.50;99.90
19206;DHT22;59358;52.134;5.596;2024-03-23T04:23:29;5.50;99.90
19206;DHT22;59358;52.134;5.596;2024-03-23T04:25:55;5.40;99.90
19206;DHT22;59358;52.134;5.596;2024-03-23T04:28:22;5.40;99.90
19206;DHT22;59358;52.134;5.596;2024-03-23T04:30:48;5.40;99.90
19206;DHT22;59358;52.134;5.596;2024-03-23T04:33:14;5.40;99.90
19206;DHT22;59358;52.134;5.596;2024-03-23T04:35:40;5.40;99.90
19206;DHT22;59358;52.134;5.596;2024-03-23T04:38:07;5.40;99.90
19206;DHT22;59358;52.134;5.596;2024-03-23T04:40:35;5.40;99.90
19206;DHT22;59358;52.134;5.596;2024-03-23T04:43:02;5.30;99.90
19206;DHT22;59358;52.134;5.596;2024-03-23T04:45:29;5.40;99.90
19206;DHT22;59358;52.134;5.596;2024-03-23T04:47:56;5.30;99.90
19206;DHT22;59358;52.134;5.596;2024-03-23T04:50:23;5.30;99.90
19206;DHT22;59358;52.134;5.596;2024-03-23T04:52:50;5.30;99.90
19206;DHT22;59358;52.134;5.596;2024-03-23T04:55:16;5.20;99.90
19206;DHT22;59358;52.134;5.596;2024-03-23T04:57:44;5.20;99.90
19206;DHT22;59358;52.134;5.596;2024-03-23T05:00:11;5.20;99.90
19206;DHT22;59358;52.134;5.596;2024-03-23T05:02:43;5.30;99.90
19206;DHT22;59358;52.134;5.596;2024-03-23T05:05:11;5.30;99.90
19206;DHT22;59358;52.134;5.596;2024-03-23T05:07:36;5.40;99.90
19206;DHT22;59358;52.134;5.596;2024-03-23T05:10:04;5.40;99.90
19206;DHT22;59358;52.134;5.596;2024-03-23T05:12:29;5.40;99.90
19206;DHT22;59358;52.134;5.596;2024-03-23T05:14:58;5.30;99.90
19206;DHT22;59358;52.134;5.596;2024-03-23T05:17:24;5.30;99.90
19206;DHT22;59358;52.134;5.596;2024-03-23T05:19:50;5.20;99.90
19206;DHT22;59358;52.134;5.596;2024-03-23T05:22:16;5.20;99.90
19206;DHT22;59358;52.134;5.596;2024-03-23T05:24:45;5.20;99.90
19206;DHT22;59358;52.134;5.596;2024-03-23T05:27:10;5.10;99.90
19206;DHT22;59358;52.134;5.596;2024-03-23T05:29:37;5.10;99.90
19206;DHT22;59358;52.134;5.596;2024-03-23T05:32:04;5.10;99.90
19206;DHT22;59358;52.134;5.596;2024-03-23T05:34:31;5.10;99.90
19206;DHT22;59358;52.134;5.596;2024-03-23T05:36:57;5.00;99.90
19206;DHT22;59358;52.134;5.596;2024-03-23T05:39:24;5.10;99.90
19206;DHT22;59358;52.134;5.596;2024-03-23T05:41:50;5.10;99.90
19206;DHT22;59358;52.134;5.596;2024-03-23T05:44:17;5.10;99.90
19206;DHT22;59358;52.134;5.596;2024-03-23T05:46:42;5.10;99.90
19206;DHT22;59358;52.134;5.596;2024-03-23T05:49:15;5.10;99.90
19206;DHT22;59358;52.134;5.596;2024-03-23T05:51:42;5.10;99.90
19206;DHT22;59358;52.134;5.596;2024-03-23T05:54:08;5.10;99.90
19206;DHT22;59358;52.134;5.596;2024-03-23T05:56:34;5.10;99.90
19206;DHT22;59358;52.134;5.596;2024-03-23T05:59:01;5.20;99.90
19206;DHT22;59358;52.134;5.596;2024-03-23T06:01:28;5.30;99.90
19206;DHT22;59358;52.134;5.596;2024-03-23T06:03:58;5.40;99.90
19206;DHT22;59358;52.134;5.596;2024-03-23T06:06:25;5.60;99.90
19206;DHT22;59358;52.134;5.596;2024-03-23T06:08:52;5.60;99.90
19206;DHT22;59358;52.134;5.596;2024-03-23T06:11:17;5.70;99.90
19206;DHT22;59358;52.134;5.596;2024-03-23T06:13:44;5.70;99.90
19206;DHT22;59358;52.134;5.596;2024-03-23T06:16:10;5.70;99.90
19206;DHT22;59358;52.134;5.596;2024-03-23T06:18:37;5.70;99.90
19206;DHT22;59358;52.134;5.596;2024-03-23T06:21:03;5.80;99.90
19206;DHT22;59358;52.134;5.596;2024-03-23T06:23:31;5.80;99.90
19206;DHT22;59358;52.134;5.596;2024-03-23T06:25:57;5.80;99.90
19206;DHT22;59358;52.134;5.596;2024-03-23T06:28:24;5.80;99.90
19206;DHT22;59358;52.134;5.596;2024-03-23T06:30:50;5.80;99.90
19206;DHT22;59358;52.134;5.596;2024-03-23T06:33:17;5.80;99.90
19206;DHT22;59358;52.134;5.596;2024-03-23T06:35:42;5.80;99.90
19206;DHT22;59358;52.134;5.596;2024-03-23T06:38:09;5.80;99.90
19206;DHT22;59358;52.134;5.596;2024-03-23T06:40:37;5.90;99.90
19206;DHT22;59358;52.134;5.596;2024-03-23T06:43:04;5.90;99.90
19206;DHT22;59358;52.134;5.596;2024-03-23T06:45:31;5.90;99.90
19206;DHT22;59358;52.134;5.596;2024-03-23T06:47:57;5.90;99.90
19206;DHT22;59358;52.134;5.596;2024-03-23T06:50:23;6.00;99.90
19206;DHT22;59358;52.134;5.596;2024-03-23T06:52:50;6.00;99.90
19206;DHT22;59358;52.134;5.596;2024-03-23T06:55:16;6.10;99.90
19206;DHT22;59358;52.134;5.596;2024-03-23T06:57:44;6.20;99.90
19206;DHT22;59358;52.134;5.596;2024-03-23T07:00:11;6.20;99.90
19206;DHT22;59358;52.134;5.596;2024-03-23T07:02:39;6.30;99.90
19206;DHT22;59358;52.134;5.596;2024-03-23T07:05:05;6.40;99.90
19206;DHT22;59358;52.134;5.596;2024-03-23T07:07:32;6.50;99.90
19206;DHT22;59358;52.134;5.596;2024-03-23T07:09:58;6.60;99.90
19206;DHT22;59358;52.134;5.596;2024-03-23T07:12:25;6.60;99.90
19206;DHT22;59358;52.134;5.596;2024-03-23T07:14:52;6.70;99.90
19206;DHT22;59358;52.134;5.596;2024-03-23T07:17:19;6.80;99.90
19206;DHT22;59358;52.134;5.596;2024-03-23T07:19:46;6.70;99.90
19206;DHT22;59358;52.134;5.596;2024-03-23T07:22:13;6.80;99.90
19206;DHT22;59358;52.134;5.596;2024-03-23T07:24:40;6.90;99.90
19206;DHT22;59358;52.134;5.596;2024-03-23T07:27:07;7.00;99.90
19206;DHT22;59358;52.134;5.596;2024-03-23T07:29:35;7.10;99.90
19206;DHT22;59358;52.134;5.596;2024-03-23T07:32:04;7.10;99.90
19206;DHT22;59358;52.134;5.596;2024-03-23T07:34:30;7.10;99.90
19206;DHT22;59358;52.134;5.596;2024-03-23T07:36:56;7.20;99.90
19206;DHT22;59358;52.134;5.596;2024-03-23T07:39:22;7.30;99.90
19206;DHT22;59358;52.134;5.596;2024-03-23T07:41:50;7.40;99.90
19206;DHT22;59358;52.134;5.596;2024-03-23T07:44:16;7.50;99.90
19206;DHT22;59358;52.134;5.596;2024-03-23T07:46:42;7.60;99.90
19206;DHT22;59358;52.134;5.596;2024-03-23T07:49:09;7.60;99.90
19206;DHT22;59358;52.134;5.596;2024-03-23T07:51:36;7.60;99.90
19206;DHT22;59358;52.134;5.596;2024-03-23T07:54:04;7.80;99.90
19206;DHT22;59358;52.134;5.596;2024-03-23T07:56:32;7.90;99.90
19206;DHT22;59358;52.134;5.596;2024-03-23T07:58:58;7.90;99.90
19206;DHT22;59358;52.134;5.596;2024-03-23T08:01:24;8.10;99.90
19206;DHT22;59358;52.134;5.596;2024-03-23T08:03:50;8.40;99.90
19206;DHT22;59358;52.134;5.596;2024-03-23T08:06:19;8.40;99.90
19206;DHT22;59358;52.134;5.596;2024-03-23T08:08:47;8.40;99.90
19206;DHT22;59358;52.134;5.596;2024-03-23T08:11:14;8.40;99.90
19206;DHT22;59358;52.134;5.596;2024-03-23T08:13:42;8.40;99.90
19206;DHT22;59358;52.134;5.596;2024-03-23T08:16:11;8.50;99.90
19206;DHT22;59358;52.134;5.596;2024-03-23T08:18:37;8.70;99.90
19206;DHT22;59358;52.134;5.596;2024-03-23T08:21:05;8.70;99.90
19206;DHT22;59358;52.134;5.596;2024-03-23T08:23:34;8.70;99.90
19206;DHT22;59358;52.134;5.596;2024-03-23T08:26:02;8.60;99.90
19206;DHT22;59358;52.134;5.596;2024-03-23T08:28:28;8.80;99.90
19206;DHT22;59358;52.134;5.596;2024-03-23T08:30:56;9.10;99.90
19206;DHT22;59358;52.134;5.596;2024-03-23T08:33:23;9.40;99.90
19206;DHT22;59358;52.134;5.596;2024-03-23T08:35:54;9.30;99.90
19206;DHT22;59358;52.134;5.596;2024-03-23T08:38:20;9.30;99.90
19206;DHT22;59358;52.134;5.596;2024-03-23T08:40:56;9.20;99.90
19206;DHT22;59358;52.134;5.596;2024-03-23T08:43:22;9.20;99.90
19206;DHT22;59358;52.134;5.596;2024-03-23T08:45:49;9.50;99.90
19206;DHT22;59358;52.134;5.596;2024-03-23T08:48:15;9.70;99.90
19206;DHT22;59358;52.134;5.596;2024-03-23T08:50:42;9.70;99.90
19206;DHT22;59358;52.134;5.596;2024-03-23T08:53:08;9.40;99.90
19206;DHT22;59358;52.134;5.596;2024-03-23T08:55:35;9.10;99.90
19206;DHT22;59358;52.134;5.596;2024-03-23T08:58:02;8.90;99.90
19206;DHT22;59358;52.134;5.596;2024-03-23T09:00:29;8.90;99.90
19206;DHT22;59358;52.134;5.596;2024-03-23T09:02:55;8.90;99.90
19206;DHT22;59358;52.134;5.596;2024-03-23T09:05:22;8.80;99.90
19206;DHT22;59358;52.134;5.596;2024-03-23T09:07:49;8.40;99.90
19206;DHT22;59358;52.134;5.596;2024-03-23T09:10:16;8.10;99.90
19206;DHT22;59358;52.134;5.596;2024-03-23T09:12:42;7.90;99.90
19206;DHT22;59358;52.134;5.596;2024-03-23T09:15:10;8.10;99.90
19206;DHT22;59358;52.134;5.596;2024-03-23T09:17:36;8.30;99.90
19206;DHT22;59358;52.134;5.596;2024-03-23T09:20:03;8.50;99.90
19206;DHT22;59358;52.134;5.596;2024-03-23T09:22:30;8.40;99.90
19206;DHT22;59358;52.134;5.596;2024-03-23T09:24:56;8.40;99.90
19206;DHT22;59358;52.134;5.596;2024-03-23T09:27:22;8.40;99.90
19206;DHT22;59358;52.134;5.596;2024-03-23T09:29:49;8.40;99.90
19206;DHT22;59358;52.134;5.596;2024-03-23T09:32:16;8.30;99.90
19206;DHT22;59358;52.134;5.596;2024-03-23T09:34:43;8.20;99.90
19206;DHT22;59358;52.134;5.596;2024-03-23T09:37:09;8.10;99.90
19206;DHT22;59358;52.134;5.596;2024-03-23T09:39:36;7.70;99.90
19206;DHT22;59358;52.134;5.596;2024-03-23T09:42:01;7.50;99.90
19206;DHT22;59358;52.134;5.596;2024-03-23T09:44:29;7.00;99.90
19206;DHT22;59358;52.134;5.596;2024-03-23T09:46:55;6.80;99.90
19206;DHT22;59358;52.134;5.596;2024-03-23T09:49:25;6.70;99.90
19206;DHT22;59358;52.134;5.596;2024-03-23T09:51:52;7.00;99.90
19206;DHT22;59358;52.134;5.596;2024-03-23T09:54:20;7.40;99.90
19206;DHT22;59358;52.134;5.596;2024-03-23T09:56:47;7.70;99.90
19206;DHT22;59358;52.134;5.596;2024-03-23T09:59:14;7.70;99.90
19206;DHT22;59358;52.134;5.596;2024-03-23T10:01:39;7.50;99.90
19206;DHT22;59358;52.134;5.596;2024-03-23T10:04:06;7.40;99.90
19206;DHT22;59358;52.134;5.596;2024-03-23T10:06:34;7.10;99.90
19206;DHT22;59358;52.134;5.596;2024-03-23T10:09:02;6.70;99.90
19206;DHT22;59358;52.134;5.596;2024-03-23T10:11:42;6.80;99.90
19206;DHT22;59358;52.134;5.596;2024-03-23T10:14:09;7.20;99.90
19206;DHT22;59358;52.134;5.596;2024-03-23T10:16:35;7.60;99.90
19206;DHT22;59358;52.134;5.596;2024-03-23T10:19:02;8.10;99.90
19206;DHT22;59358;52.134;5.596;2024-03-23T10:21:28;8.40;99.90
19206;DHT22;59358;52.134;5.596;2024-03-23T10:23:56;8.50;99.90
19206;DHT22;59358;52.134;5.596;2024-03-23T10:26:33;8.80;99.90
19206;DHT22;59358;52.134;5.596;2024-03-23T10:29:01;9.30;99.90
19206;DHT22;59358;52.134;5.596;2024-03-23T10:31:27;9.60;99.90
19206;DHT22;59358;52.134;5.596;2024-03-23T10:33:54;9.90;99.90
19206;DHT22;59358;52.134;5.596;2024-03-23T10:36:20;9.90;99.90
19206;DHT22;59358;52.134;5.596;2024-03-23T10:38:49;9.50;99.90
19206;DHT22;59358;52.134;5.596;2024-03-23T10:41:17;9.10;99.90
19206;DHT22;59358;52.134;5.596;2024-03-23T10:43:46;8.90;99.90
19206;DHT22;59358;52.134;5.596;2024-03-23T10:46:12;8.90;99.90
19206;DHT22;59358;52.134;5.596;2024-03-23T10:48:40;9.10;99.90
19206;DHT22;59358;52.134;5.596;2024-03-23T10:51:08;9.50;99.90
19206;DHT22;59358;52.134;5.596;2024-03-23T10:53:35;9.70;99.90
19206;DHT22;59358;52.134;5.596;2024-03-23T10:56:03;9.80;99.90
19206;DHT22;59358;52.134;5.596;2024-03-23T10:58:34;10.30;99.90
19206;DHT22;59358;52.134;5.596;2024-03-23T11:01:03;10.70;99.90
19206;DHT22;59358;52.134;5.596;2024-03-23T11:03:31;10.50;99.90
19206;DHT22;59358;52.134;5.596;2024-03-23T11:05:58;10.00;99.90
19206;DHT22;59358;52.134;5.596;2024-03-23T11:08:35;9.30;99.90
19206;DHT22;59358;52.134;5.596;2024-03-23T11:11:17;7.80;99.90
19206;DHT22;59358;52.134;5.596;2024-03-23T11:13:48;7.10;99.90
19206;DHT22;59358;52.134;5.596;2024-03-23T11:16:15;6.90;99.90
19206;DHT22;59358;52.134;5.596;2024-03-23T11:18:45;6.90;99.90
19206;DHT22;59358;52.134;5.596;2024-03-23T11:24:16;7.20;99.90
19206;DHT22;59358;52.134;5.596;2024-03-23T11:26:44;7.80;99.90
19206;DHT22;59358;52.134;5.596;2024-03-23T11:29:13;8.20;99.90
19206;DHT22;59358;52.134;5.596;2024-03-23T11:31:45;8.60;99.90
19206;DHT22;59358;52.134;5.596;2024-03-23T11:34:13;9.00;99.90
19206;DHT22;59358;52.134;5.596;2024-03-23T11:36:38;9.20;99.90
19206;DHT22;59358;52.134;5.596;2024-03-23T11:39:12;9.20;99.90
19206;DHT22;59358;52.134;5.596;2024-03-23T11:41:46;9.00;99.90
19206;DHT22;59358;52.134;5.596;2024-03-23T11:44:18;9.00;99.90
19206;DHT22;59358;52.134;5.596;2024-03-23T11:46:44;9.00;99.90
19206;DHT22;59358;52.134;5.596;2024-03-23T11:49:21;9.10;99.90
19206;DHT22;59358;52.134;5.596;2024-03-23T11:51:47;9.20;99.90
19206;DHT22;59358;52.134;5.596;2024-03-23T11:54:14;9.30;99.90
19206;DHT22;59358;52.134;5.596;2024-03-23T11:56:40;9.50;99.90
19206;DHT22;59358;52.134;5.596;2024-03-23T11:59:07;9.70;99.90
19206;DHT22;59358;52.134;5.596;2024-03-23T12:01:34;10.00;99.90
19206;DHT22;59358;52.134;5.596;2024-03-23T12:04:01;10.30;99.90
19206;DHT22;59358;52.134;5.596;2024-03-23T12:06:27;10.30;99.90
19206;DHT22;59358;52.134;5.596;2024-03-23T12:09:05;9.90;99.90
19206;DHT22;59358;52.134;5.596;2024-03-23T12:11:31;9.80;99.90
19206;DHT22;59358;52.134;5.596;2024-03-23T12:13:59;9.40;99.90
19206;DHT22;59358;52.134;5.596;2024-03-23T12:16:28;9.30;99.90
19206;DHT22;59358;52.134;5.596;2024-03-23T12:19:05;9.40;99.90
19206;DHT22;59358;52.134;5.596;2024-03-23T12:21:31;9.50;99.90
19206;DHT22;59358;52.134;5.596;2024-03-23T12:23:57;9.80;99.90
19206;DHT22;59358;52.134;5.596;2024-03-23T12:26:24;9.70;99.90
19206;DHT22;59358;52.134;5.596;2024-03-23T12:28:51;9.50;99.90
19206;DHT22;59358;52.134;5.596;2024-03-23T12:31:16;9.40;99.90
19206;DHT22;59358;52.134;5.596;2024-03-23T12:33:43;9.30;99.90
19206;DHT22;59358;52.134;5.596;2024-03-23T12:36:14;8.90;99.90
19206;DHT22;59358;52.134;5.596;2024-03-23T12:38:41;8.80;99.90
19206;DHT22;59358;52.134;5.596;2024-03-23T12:41:06;9.00;99.90
19206;DHT22;59358;52.134;5.596;2024-03-23T12:43:35;9.50;99.90
19206;DHT22;59358;52.134;5.596;2024-03-23T12:46:03;9.70;99.90
19206;DHT22;59358;52.134;5.596;2024-03-23T12:48:30;9.90;99.90
19206;DHT22;59358;52.134;5.596;2024-03-23T12:50:56;9.80;99.90
19206;DHT22;59358;52.134;5.596;2024-03-23T12:53:24;9.80;99.90
19206;DHT22;59358;52.134;5.596;2024-03-23T12:55:50;9.70;99.90
19206;DHT22;59358;52.134;5.596;2024-03-23T12:58:17;9.50;99.90
19206;DHT22;59358;52.134;5.596;2024-03-23T13:00:43;9.40;99.90
19206;DHT22;59358;52.134;5.596;2024-03-23T13:03:13;9.60;99.90
19206;DHT22;59358;52.134;5.596;2024-03-23T13:05:41;9.80;99.90
19206;DHT22;59358;52.134;5.596;2024-03-23T13:08:07;9.90;99.90
19206;DHT22;59358;52.134;5.596;2024-03-23T13:10:34;9.80;99.90
19206;DHT22;59358;52.134;5.596;2024-03-23T13:13:01;9.40;99.90
19206;DHT22;59358;52.134;5.596;2024-03-23T13:15:27;9.40;99.90
19206;DHT22;59358;52.134;5.596;2024-03-23T13:17:54;9.40;99.90
19206;DHT22;59358;52.134;5.596;2024-03-23T13:20:20;9.30;99.90
19206;DHT22;59358;52.134;5.596;2024-03-23T13:22:46;9.30;99.90
19206;DHT22;59358;52.134;5.596;2024-03-23T13:25:13;9.30;99.90
19206;DHT22;59358;52.134;5.596;2024-03-23T13:27:41;9.20;99.90
19206;DHT22;59358;52.134;5.596;2024-03-23T13:30:08;8.90;99.90
19206;DHT22;59358;52.134;5.596;2024-03-23T13:32:35;8.80;99.90
19206;DHT22;59358;52.134;5.596;2024-03-23T13:35:01;8.90;99.90
19206;DHT22;59358;52.134;5.596;2024-03-23T13:40:12;9.50;99.90
19206;DHT22;59358;52.134;5.596;2024-03-23T13:42:38;9.00;99.90
19206;DHT22;59358;52.134;5.596;2024-03-23T13:45:07;8.50;99.90
19206;DHT22;59358;52.134;5.596;2024-03-23T13:47:33;8.10;99.90
19206;DHT22;59358;52.134;5.596;2024-03-23T13:50:00;7.90;99.90
19206;DHT22;59358;52.134;5.596;2024-03-23T13:52:26;7.80;99.90
19206;DHT22;59358;52.134;5.596;2024-03-23T13:54:53;7.90;99.90
19206;DHT22;59358;52.134;5.596;2024-03-23T13:57:19;8.10;99.90
19206;DHT22;59358;52.134;5.596;2024-03-23T13:59:46;8.50;99.90
19206;DHT22;59358;52.134;5.596;2024-03-23T14:02:14;8.80;99.90
19206;DHT22;59358;52.134;5.596;2024-03-23T14:04:42;9.20;99.90
19206;DHT22;59358;52.134;5.596;2024-03-23T14:07:07;9.50;99.90
19206;DHT22;59358;52.134;5.596;2024-03-23T14:09:38;9.70;99.90
19206;DHT22;59358;52.134;5.596;2024-03-23T14:12:07;9.90;99.90
19206;DHT22;59358;52.134;5.596;2024-03-23T14:14:35;9.70;99.90
19206;DHT22;59358;52.134;5.596;2024-03-23T14:17:00;9.70;99.90
19206;DHT22;59358;52.134;5.596;2024-03-23T14:19:29;9.70;99.90
19206;DHT22;59358;52.134;5.596;2024-03-23T14:21:54;9.70;99.90
19206;DHT22;59358;52.134;5.596;2024-03-23T14:24:21;10.20;99.90
19206;DHT22;59358;52.134;5.596;2024-03-23T14:26:47;10.40;99.90
19206;DHT22;59358;52.134;5.596;2024-03-23T14:29:14;10.60;99.90
19206;DHT22;59358;52.134;5.596;2024-03-23T14:31:40;10.50;99.90
19206;DHT22;59358;52.134;5.596;2024-03-23T14:34:07;10.60;99.90
19206;DHT22;59358;52.134;5.596;2024-03-23T14:36:36;10.50;99.90
19206;DHT22;59358;52.134;5.596;2024-03-23T14:39:03;10.40;99.90
19206;DHT22;59358;52.134;5.596;2024-03-23T14:41:29;10.00;99.90
19206;DHT22;59358;52.134;5.596;2024-03-23T14:43:56;9.70;99.90
19206;DHT22;59358;52.134;5.596;2024-03-23T14:46:22;9.80;99.90
19206;DHT22;59358;52.134;5.596;2024-03-23T14:48:49;9.90;99.90
19206;DHT22;59358;52.134;5.596;2024-03-23T14:51:15;10.10;99.90
19206;DHT22;59358;52.134;5.596;2024-03-23T14:53:46;10.10;99.90
19206;DHT22;59358;52.134;5.596;2024-03-23T14:56:14;10.10;99.90
19206;DHT22;59358;52.134;5.596;2024-03-23T14:58:41;9.90;99.90
19206;DHT22;59358;52.134;5.596;2024-03-23T15:01:08;9.90;99.90
19206;DHT22;59358;52.134;5.596;2024-03-23T15:03:35;10.20;99.90
19206;DHT22;59358;52.134;5.596;2024-03-23T15:06:01;10.50;99.90
19206;DHT22;59358;52.134;5.596;2024-03-23T15:08:28;10.30;99.90
19206;DHT22;59358;52.134;5.596;2024-03-23T15:10:58;10.10;99.90
19206;DHT22;59358;52.134;5.596;2024-03-23T15:13:25;9.90;99.90
19206;DHT22;59358;52.134;5.596;2024-03-23T15:15:52;9.80;99.90
19206;DHT22;59358;52.134;5.596;2024-03-23T15:18:19;9.80;99.90
19206;DHT22;59358;52.134;5.596;2024-03-23T15:20:54;10.00;99.90
19206;DHT22;59358;52.134;5.596;2024-03-23T15:23:20;10.50;99.90
19206;DHT22;59358;52.134;5.596;2024-03-23T15:25:54;11.00;99.90
19206;DHT22;59358;52.134;5.596;2024-03-23T15:28:22;11.30;99.90
19206;DHT22;59358;52.134;5.596;2024-03-23T15:30:48;11.80;99.90
19206;DHT22;59358;52.134;5.596;2024-03-23T15:33:15;12.10;99.90
19206;DHT22;59358;52.134;5.596;2024-03-23T15:35:41;12.50;99.90
19206;DHT22;59358;52.134;5.596;2024-03-23T15:38:08;12.90;99.90
19206;DHT22;59358;52.134;5.596;2024-03-23T15:40:35;12.40;99.90
19206;DHT22;59358;52.134;5.596;2024-03-23T15:43:01;12.00;99.90
19206;DHT22;59358;52.134;5.596;2024-03-23T15:45:29;12.50;99.90
19206;DHT22;59358;52.134;5.596;2024-03-23T15:47:56;12.40;99.90
19206;DHT22;59358;52.134;5.596;2024-03-23T15:50:21;12.60;99.90
19206;DHT22;59358;52.134;5.596;2024-03-23T15:52:48;11.80;99.90
19206;DHT22;59358;52.134;5.596;2024-03-23T15:55:15;11.20;99.90
19206;DHT22;59358;52.134;5.596;2024-03-23T15:57:42;10.80;99.90
19206;DHT22;59358;52.134;5.596;2024-03-23T16:00:08;10.30;99.90
19206;DHT22;59358;52.134;5.596;2024-03-23T16:02:37;9.90;99.90
19206;DHT22;59358;52.134;5.596;2024-03-23T16:05:04;9.70;99.90
19206;DHT22;59358;52.134;5.596;2024-03-23T16:07:30;9.50;99.90
19206;DHT22;59358;52.134;5.596;2024-03-23T16:09:56;9.30;99.90
19206;DHT22;59358;52.134;5.596;2024-03-23T16:12:29;9.30;99.90
19206;DHT22;59358;52.134;5.596;2024-03-23T16:14:55;9.60;99.90
19206;DHT22;59358;52.134;5.596;2024-03-23T16:17:22;9.70;99.90
19206;DHT22;59358;52.134;5.596;2024-03-23T16:19:49;9.80;99.90
19206;DHT22;59358;52.134;5.596;2024-03-23T16:22:16;9.90;99.90
19206;DHT22;59358;52.134;5.596;2024-03-23T16:24:42;10.00;99.90
19206;DHT22;59358;52.134;5.596;2024-03-23T16:27:09;10.10;99.90
19206;DHT22;59358;52.134;5.596;2024-03-23T16:29:35;10.30;99.90
19206;DHT22;59358;52.134;5.596;2024-03-23T16:32:01;10.70;99.90
19206;DHT22;59358;52.134;5.596;2024-03-23T16:34:27;10.30;99.90
19206;DHT22;59358;52.134;5.596;2024-03-23T16:36:55;9.90;99.90
19206;DHT22;59358;52.134;5.596;2024-03-23T16:39:22;9.50;99.90
19206;DHT22;59358;52.134;5.596;2024-03-23T16:41:49;9.00;99.90
19206;DHT22;59358;52.134;5.596;2024-03-23T16:44:15;8.90;99.90